sensor_id;sensor_type;location;lat;lon;timestamp;P1;durP1;ratioP1;P2;durP2;ratioP2
8982;SDS011;20979;59.850;10.660;2023-04-06T00:00:47;0.73;;;0.73;;
8982;SDS011;20979;59.850;10.660;2023-04-06T00:03:16;1.27;;;0.90;;
8982;SDS011;20979;59.850;10.660;2023-04-06T00:05:43;0.77;;;0.77;;
8982;SDS011;20979;59.850;10.660;2023-04-06T00:08:11;0.60;;;0.60;;
8982;SDS011;20979;59.850;10.660;2023-04-06T00:10:38;1.63;;;1.03;;
8982;SDS011;20979;59.850;10.660;2023-04-06T00:13:06;0.50;;;0.50;;
8982;SDS011;20979;59.850;10.660;2023-04-06T00:15:33;1.60;;;1.00;;
8982;SDS011;20979;59.850;10.660;2023-04-06T00:18:01;1.13;;;0.80;;
8982;SDS011;20979;59.850;10.660;2023-04-06T00:20:30;0.70;;;0.70;;
8982;SDS011;20979;59.850;10.660;2023-04-06T00:22:57;0.80;;;0.80;;
8982;SDS011;20979;59.850;10.660;2023-04-06T00:25:25;1.73;;;0.90;;
8982;SDS011;20979;59.850;10.660;2023-04-06T00:27:52;0.80;;;0.80;;
8982;SDS011;20979;59.850;10.660;2023-04-06T00:30:20;0.60;;;0.60;;
8982;SDS011;20979;59.850;10.660;2023-04-06T00:32:47;1.40;;;0.87;;
8982;SDS011;20979;59.850;10.660;2023-04-06T00:35:14;0.50;;;0.50;;
8982;SDS011;20979;59.850;10.660;2023-04-06T00:37:45;0.70;;;0.70;;
8982;SDS011;20979;59.850;10.660;2023-04-06T00:40:13;1.37;;;0.80;;
8982;SDS011;20979;59.850;10.660;2023-04-06T00:42:40;1.03;;;0.83;;
8982;SDS011;20979;59.850;10.660;2023-04-06T00:45:08;0.80;;;0.80;;
8982;SDS011;20979;59.850;10.660;2023-04-06T00:47:36;0.60;;;0.60;;
8982;SDS011;20979;59.850;10.660;2023-04-06T00:50:03;0.70;;;0.70;;
8982;SDS011;20979;59.850;10.660;2023-04-06T00:52:31;0.93;;;0.60;;
8982;SDS011;20979;59.850;10.660;2023-04-06T00:55:00;0.70;;;0.70;;
8982;SDS011;20979;59.850;10.660;2023-04-06T00:57:27;1.13;;;1.00;;
8982;SDS011;20979;59.850;10.660;2023-04-06T00:59:55;1.60;;;0.73;;
8982;SDS011;20979;59.850;10.660;2023-04-06T01:02:23;1.37;;;0.70;;
8982;SDS011;20979;59.850;10.660;2023-04-06T01:04:51;1.20;;;0.83;;
8982;SDS011;20979;59.850;10.660;2023-04-06T01:07:19;0.87;;;0.80;;
8982;SDS011;20979;59.850;10.660;2023-04-06T01:09:46;0.83;;;0.83;;
8982;SDS011;20979;59.850;10.660;2023-04-06T01:12:15;0.80;;;0.80;;
8982;SDS011;20979;59.850;10.660;2023-04-06T01:14:42;0.70;;;0.70;;
8982;SDS011;20979;59.850;10.660;2023-04-06T01:17:09;0.70;;;0.70;;
8982;SDS011;20979;59.850;10.660;2023-04-06T01:19:37;0.87;;;0.87;;
8982;SDS011;20979;59.850;10.660;2023-04-06T01:22:05;0.90;;;0.90;;
8982;SDS011;20979;59.850;10.660;2023-04-06T01:24:34;0.67;;;0.67;;
8982;SDS011;20979;59.850;10.660;2023-04-06T01:27:01;0.80;;;0.70;;
8982;SDS011;20979;59.850;10.660;2023-04-06T01:29:28;1.00;;;0.90;;
8982;SDS011;20979;59.850;10.660;2023-04-06T01:31:56;1.53;;;1.00;;
8982;SDS011;20979;59.850;10.660;2023-04-06T01:34:24;0.97;;;0.90;;
8982;SDS011;20979;59.850;10.660;2023-04-06T01:36:51;1.80;;;0.80;;
8982;SDS011;20979;59.850;10.660;2023-04-06T01:39:18;0.70;;;0.70;;
8982;SDS011;20979;59.850;10.660;2023-04-06T01:41:47;0.77;;;0.70;;
8982;SDS011;20979;59.850;10.660;2023-04-06T01:44:16;1.13;;;0.80;;
8982;SDS011;20979;59.850;10.660;2023-04-06T01:46:44;0.80;;;0.80;;
8982;SDS011;20979;59.850;10.660;2023-04-06T01:49:12;1.67;;;0.83;;
8982;SDS011;20979;59.850;10.660;2023-04-06T01:51:39;0.93;;;0.93;;
8982;SDS011;20979;59.850;10.660;2023-04-06T01:54:06;1.53;;;0.90;;
8982;SDS011;20979;59.850;10.660;2023-04-06T01:56:34;0.73;;;0.73;;
8982;SDS011;20979;59.850;10.660;2023-04-06T01:59:03;0.53;;;0.53;;
8982;SDS011;20979;59.850;10.660;2023-04-06T02:01:30;0.80;;;0.80;;
8982;SDS011;20979;59.850;10.660;2023-04-06T02:03:57;1.80;;;0.90;;
8982;SDS011;20979;59.850;10.660;2023-04-06T02:06:25;1.00;;;0.90;;
8982;SDS011;20979;59.850;10.660;2023-04-06T02:08:52;1.33;;;0.83;;
8982;SDS011;20979;59.850;10.660;2023-04-06T02:11:20;2.03;;;0.80;;
8982;SDS011;20979;59.850;10.660;2023-04-06T02:13:47;0.97;;;0.90;;
8982;SDS011;20979;59.850;10.660;2023-04-06T02:16:16;0.90;;;0.90;;
8982;SDS011;20979;59.850;10.660;2023-04-06T02:18:43;1.20;;;0.90;;
8982;SDS011;20979;59.850;10.660;2023-04-06T02:21:11;1.03;;;0.90;;
8982;SDS011;20979;59.850;10.660;2023-04-06T02:23:38;1.00;;;1.00;;
8982;SDS011;20979;59.850;10.660;2023-04-06T02:26:06;0.90;;;0.90;;
8982;SDS011;20979;59.850;10.660;2023-04-06T02:28:33;0.90;;;0.90;;
8982;SDS011;20979;59.850;10.660;2023-04-06T02:31:01;1.10;;;1.03;;
8982;SDS011;20979;59.850;10.660;2023-04-06T02:33:29;1.40;;;0.93;;
8982;SDS011;20979;59.850;10.660;2023-04-06T02:35:57;0.90;;;0.90;;
8982;SDS011;20979;59.850;10.660;2023-04-06T02:38:24;1.07;;;0.80;;
8982;SDS011;20979;59.850;10.660;2023-04-06T02:40:51;0.70;;;0.70;;
8982;SDS011;20979;59.850;10.660;2023-04-06T02:43:19;0.80;;;0.80;;
8982;SDS011;20979;59.850;10.660;2023-04-06T02:45:46;0.77;;;0.77;;
8982;SDS011;20979;59.850;10.660;2023-04-06T02:48:14;0.77;;;0.77;;
8982;SDS011;20979;59.850;10.660;2023-04-06T02:50:42;0.90;;;0.90;;
8982;SDS011;20979;59.850;10.660;2023-04-06T02:53:10;1.23;;;0.90;;
8982;SDS011;20979;59.850;10.660;2023-04-06T02:55:37;0.87;;;0.80;;
8982;SDS011;20979;59.850;10.660;2023-04-06T02:58:05;0.90;;;0.80;;
8982;SDS011;20979;59.850;10.660;2023-04-06T03:00:32;0.80;;;0.80;;
8982;SDS011;20979;59.850;10.660;2023-04-06T03:03:01;0.87;;;0.87;;
8982;SDS011;20979;59.850;10.660;2023-04-06T03:05:28;0.73;;;0.73;;
8982;SDS011;20979;59.850;10.660;2023-04-06T03:07:57;1.00;;;0.90;;
8982;SDS011;20979;59.850;10.660;2023-04-06T03:10:24;2.00;;;0.80;;
8982;SDS011;20979;59.850;10.660;2023-04-06T03:12:52;0.97;;;0.70;;
8982;SDS011;20979;59.850;10.660;2023-04-06T03:15:19;1.00;;;0.90;;
8982;SDS011;20979;59.850;10.660;2023-04-06T03:17:46;0.93;;;0.77;;
8982;SDS011;20979;59.850;10.660;2023-04-06T03:20:14;1.37;;;0.90;;
8982;SDS011;20979;59.850;10.660;2023-04-06T03:22:41;0.80;;;0.80;;
8982;SDS011;20979;59.850;10.660;2023-04-06T03:25:10;1.13;;;1.03;;
8982;SDS011;20979;59.850;10.660;2023-04-06T03:27:37;0.80;;;0.80;;
8982;SDS011;20979;59.850;10.660;2023-04-06T03:30:06;1.53;;;1.00;;
8982;SDS011;20979;59.850;10.660;2023-04-06T03:32:33;0.87;;;0.87;;
8982;SDS011;20979;59.850;10.660;2023-04-06T03:35:00;1.43;;;0.80;;
8982;SDS011;20979;59.850;10.660;2023-04-06T03:37:28;0.80;;;0.80;;
8982;SDS011;20979;59.850;10.660;2023-04-06T03:39:55;0.90;;;0.90;;
8982;SDS011;20979;59.850;10.660;2023-04-06T03:42:24;1.27;;;0.80;;
8982;SDS011;20979;59.850;10.660;2023-04-06T03:44:51;1.00;;;1.00;;
8982;SDS011;20979;59.850;10.660;2023-04-06T03:47:19;1.60;;;0.77;;
8982;SDS011;20979;59.850;10.660;2023-04-06T03:49:46;0.90;;;0.90;;
8982;SDS011;20979;59.850;10.660;2023-04-06T03:52:14;0.73;;;0.73;;
8982;SDS011;20979;59.850;10.660;2023-04-06T03:54:41;0.80;;;0.80;;
8982;SDS011;20979;59.850;10.660;2023-04-06T03:57:08;0.83;;;0.70;;
8982;SDS011;20979;59.850;10.660;2023-04-06T03:59:37;0.73;;;0.73;;
8982;SDS011;20979;59.850;10.660;2023-04-06T04:02:05;0.90;;;0.90;;
8982;SDS011;20979;59.850;10.660;2023-04-06T04:04:32;0.90;;;0.90;;
8982;SDS011;20979;59.850;10.660;2023-04-06T04:07:00;0.70;;;0.70;;
8982;SDS011;20979;59.850;10.660;2023-04-06T04:09:27;1.80;;;1.00;;
8982;SDS011;20979;59.850;10.660;2023-04-06T04:11:54;1.30;;;1.20;;
8982;SDS011;20979;59.850;10.660;2023-04-06T04:14:22;0.77;;;0.77;;
8982;SDS011;20979;59.850;10.660;2023-04-06T04:16:51;1.10;;;1.00;;
8982;SDS011;20979;59.850;10.660;2023-04-06T04:19:19;0.87;;;0.80;;
8982;SDS011;20979;59.850;10.660;2023-04-06T04:21:46;1.20;;;1.10;;
8982;SDS011;20979;59.850;10.660;2023-04-06T04:24:14;0.80;;;0.80;;
8982;SDS011;20979;59.850;10.660;2023-04-06T04:26:41;1.13;;;1.07;;
8982;SDS011;20979;59.850;10.660;2023-04-06T04:29:09;1.70;;;1.00;;
8982;SDS011;20979;59.850;10.660;2023-04-06T04:31:36;0.73;;;0.73;;
8982;SDS011;20979;59.850;10.660;2023-04-06T04:34:05;0.70;;;0.70;;
8982;SDS011;20979;59.850;10.660;2023-04-06T04:36:33;0.90;;;0.90;;
8982;SDS011;20979;59.850;10.660;2023-04-06T04:39:00;0.90;;;0.90;;
8982;SDS011;20979;59.850;10.660;2023-04-06T04:41:27;1.07;;;1.07;;
8982;SDS011;20979;59.850;10.660;2023-04-06T04:43:55;1.00;;;0.90;;
8982;SDS011;20979;59.850;10.660;2023-04-06T04:46:22;1.70;;;1.00;;
8982;SDS011;20979;59.850;10.660;2023-04-06T04:48:50;1.10;;;0.90;;
8982;SDS011;20979;59.850;10.660;2023-04-06T04:51:18;0.90;;;0.90;;
8982;SDS011;20979;59.850;10.660;2023-04-06T04:53:46;1.20;;;0.83;;
8982;SDS011;20979;59.850;10.660;2023-04-06T04:56:13;1.23;;;1.03;;
8982;SDS011;20979;59.850;10.660;2023-04-06T04:58:40;0.77;;;0.77;;
8982;SDS011;20979;59.850;10.660;2023-04-06T05:01:08;0.77;;;0.77;;
8982;SDS011;20979;59.850;10.660;2023-04-06T05:03:35;0.90;;;0.90;;
8982;SDS011;20979;59.850;10.660;2023-04-06T05:06:04;1.00;;;1.00;;
8982;SDS011;20979;59.850;10.660;2023-04-06T05:08:33;0.90;;;0.90;;
8982;SDS011;20979;59.850;10.660;2023-04-06T05:11:01;0.80;;;0.80;;
8982;SDS011;20979;59.850;10.660;2023-04-06T05:13:29;0.80;;;0.80;;
8982;SDS011;20979;59.850;10.660;2023-04-06T05:15:57;0.90;;;0.90;;
8982;SDS011;20979;59.850;10.660;2023-04-06T05:18:24;0.90;;;0.90;;
8982;SDS011;20979;59.850;10.660;2023-04-06T05:20:52;0.97;;;0.90;;
8982;SDS011;20979;59.850;10.660;2023-04-06T05:23:20;1.00;;;0.90;;
8982;SDS011;20979;59.850;10.660;2023-04-06T05:25:49;1.00;;;1.00;;
8982;SDS011;20979;59.850;10.660;2023-04-06T05:28:16;0.90;;;0.90;;
8982;SDS011;20979;59.850;10.660;2023-04-06T05:30:44;1.03;;;1.03;;
8982;SDS011;20979;59.850;10.660;2023-04-06T05:33:11;2.50;;;1.10;;
8982;SDS011;20979;59.850;10.660;2023-04-06T05:35:39;1.00;;;0.90;;
8982;SDS011;20979;59.850;10.660;2023-04-06T05:38:07;1.00;;;1.00;;
8982;SDS011;20979;59.850;10.660;2023-04-06T05:40:35;1.37;;;1.00;;
8982;SDS011;20979;59.850;10.660;2023-04-06T05:43:04;1.10;;;1.00;;
8982;SDS011;20979;59.850;10.660;2023-04-06T05:45:32;1.93;;;1.00;;
8982;SDS011;20979;59.850;10.660;2023-04-06T05:48:00;1.00;;;1.00;;
8982;SDS011;20979;59.850;10.660;2023-04-06T05:50:27;1.00;;;1.00;;
8982;SDS011;20979;59.850;10.660;2023-04-06T05:52:54;1.00;;;1.00;;
8982;SDS011;20979;59.850;10.660;2023-04-06T05:55:22;2.20;;;1.10;;
8982;SDS011;20979;59.850;10.660;2023-04-06T05:57:49;2.07;;;1.00;;
8982;SDS011;20979;59.850;10.660;2023-04-06T06:00:18;1.17;;;1.10;;
8982;SDS011;20979;59.850;10.660;2023-04-06T06:02:46;1.17;;;1.07;;
8982;SDS011;20979;59.850;10.660;2023-04-06T06:05:13;1.10;;;1.10;;
8982;SDS011;20979;59.850;10.660;2023-04-06T06:07:41;1.17;;;1.17;;
8982;SDS011;20979;59.850;10.660;2023-04-06T06:10:08;0.90;;;0.90;;
8982;SDS011;20979;59.850;10.660;2023-04-06T06:12:36;1.10;;;1.10;;
8982;SDS011;20979;59.850;10.660;2023-04-06T06:15:04;1.30;;;1.20;;
8982;SDS011;20979;59.850;10.660;2023-04-06T06:17:33;1.50;;;1.10;;
8982;SDS011;20979;59.850;10.660;2023-04-06T06:20:00;0.97;;;0.97;;
8982;SDS011;20979;59.850;10.660;2023-04-06T06:22:28;0.97;;;0.97;;
8982;SDS011;20979;59.850;10.660;2023-04-06T06:24:55;1.23;;;1.23;;
8982;SDS011;20979;59.850;10.660;2023-04-06T06:27:23;0.97;;;0.97;;
8982;SDS011;20979;59.850;10.660;2023-04-06T06:29:50;1.10;;;1.00;;
8982;SDS011;20979;59.850;10.660;2023-04-06T06:32:18;1.23;;;1.17;;
8982;SDS011;20979;59.850;10.660;2023-04-06T06:34:46;1.30;;;1.20;;
8982;SDS011;20979;59.850;10.660;2023-04-06T06:37:14;1.20;;;0.90;;
8982;SDS011;20979;59.850;10.660;2023-04-06T06:39:41;1.20;;;1.10;;
8982;SDS011;20979;59.850;10.660;2023-04-06T06:42:08;1.33;;;1.20;;
8982;SDS011;20979;59.850;10.660;2023-04-06T06:44:36;1.33;;;1.23;;
8982;SDS011;20979;59.850;10.660;2023-04-06T06:47:03;1.07;;;1.07;;
8982;SDS011;20979;59.850;10.660;2023-04-06T06:49:31;1.30;;;1.20;;
8982;SDS011;20979;59.850;10.660;2023-04-06T06:51:59;1.23;;;1.07;;
8982;SDS011;20979;59.850;10.660;2023-04-06T06:54:27;1.23;;;1.10;;
8982;SDS011;20979;59.850;10.660;2023-04-06T06:56:54;1.23;;;1.13;;
8982;SDS011;20979;59.850;10.660;2023-04-06T06:59:21;1.20;;;1.10;;
8982;SDS011;20979;59.850;10.660;2023-04-06T07:01:53;1.00;;;1.00;;
8982;SDS011;20979;59.850;10.660;2023-04-06T07:04:20;1.30;;;1.20;;
8982;SDS011;20979;59.850;10.660;2023-04-06T07:06:48;1.10;;;1.10;;
8982;SDS011;20979;59.850;10.660;2023-04-06T07:09:17;1.63;;;1.00;;
8982;SDS011;20979;59.850;10.660;2023-04-06T07:11:44;1.00;;;1.00;;
8982;SDS011;20979;59.850;10.660;2023-04-06T07:14:11;1.17;;;1.00;;
8982;SDS011;20979;59.850;10.660;2023-04-06T07:16:39;1.17;;;1.10;;
8982;SDS011;20979;59.850;10.660;2023-04-06T07:19:06;1.30;;;1.07;;
8982;SDS011;20979;59.850;10.660;2023-04-06T07:21:34;1.27;;;1.00;;
8982;SDS011;20979;59.850;10.660;2023-04-06T07:24:02;1.00;;;1.00;;
8982;SDS011;20979;59.850;10.660;2023-04-06T07:26:30;1.40;;;1.10;;
8982;SDS011;20979;59.850;10.660;2023-04-06T07:28:58;1.10;;;1.10;;
8982;SDS011;20979;59.850;10.660;2023-04-06T07:31:25;0.90;;;0.90;;
8982;SDS011;20979;59.850;10.660;2023-04-06T07:33:53;1.20;;;1.10;;
8982;SDS011;20979;59.850;10.660;2023-04-06T07:36:22;1.10;;;1.10;;
8982;SDS011;20979;59.850;10.660;2023-04-06T07:38:50;1.13;;;1.03;;
8982;SDS011;20979;59.850;10.660;2023-04-06T07:41:17;1.40;;;1.30;;
8982;SDS011;20979;59.850;10.660;2023-04-06T07:43:46;1.13;;;1.13;;
8982;SDS011;20979;59.850;10.660;2023-04-06T07:46:13;1.30;;;1.20;;
8982;SDS011;20979;59.850;10.660;2023-04-06T07:48:41;1.00;;;1.00;;
8982;SDS011;20979;59.850;10.660;2023-04-06T07:51:08;1.43;;;1.13;;
8982;SDS011;20979;59.850;10.660;2023-04-06T07:53:39;1.30;;;1.20;;
8982;SDS011;20979;59.850;10.660;2023-04-06T07:56:06;1.10;;;1.00;;
8982;SDS011;20979;59.850;10.660;2023-04-06T07:58:34;3.17;;;1.37;;
8982;SDS011;20979;59.850;10.660;2023-04-06T08:01:02;1.33;;;1.23;;
8982;SDS011;20979;59.850;10.660;2023-04-06T08:03:30;1.13;;;1.03;;
8982;SDS011;20979;59.850;10.660;2023-04-06T08:06:00;1.40;;;1.30;;
8982;SDS011;20979;59.850;10.660;2023-04-06T08:08:27;1.40;;;1.30;;
8982;SDS011;20979;59.850;10.660;2023-04-06T08:10:55;1.13;;;1.13;;
8982;SDS011;20979;59.850;10.660;2023-04-06T08:13:23;1.20;;;1.10;;
8982;SDS011;20979;59.850;10.660;2023-04-06T08:15:50;1.10;;;1.10;;
8982;SDS011;20979;59.850;10.660;2023-04-06T08:18:20;1.40;;;1.30;;
8982;SDS011;20979;59.850;10.660;2023-04-06T08:20:47;1.23;;;1.20;;
8982;SDS011;20979;59.850;10.660;2023-04-06T08:23:15;1.23;;;1.20;;
8982;SDS011;20979;59.850;10.660;2023-04-06T08:25:42;1.33;;;1.23;;
8982;SDS011;20979;59.850;10.660;2023-04-06T08:28:10;1.97;;;1.30;;
8982;SDS011;20979;59.850;10.660;2023-04-06T08:30:39;1.30;;;1.20;;
8982;SDS011;20979;59.850;10.660;2023-04-06T08:33:06;1.27;;;1.17;;
8982;SDS011;20979;59.850;10.660;2023-04-06T08:35:36;1.30;;;1.20;;
8982;SDS011;20979;59.850;10.660;2023-04-06T08:38:04;1.30;;;1.20;;
8982;SDS011;20979;59.850;10.660;2023-04-06T08:40:35;1.47;;;1.30;;
8982;SDS011;20979;59.850;10.660;2023-04-06T08:43:03;1.30;;;1.20;;
8982;SDS011;20979;59.850;10.660;2023-04-06T08:45:33;1.33;;;1.23;;
8982;SDS011;20979;59.850;10.660;2023-04-06T08:48:00;1.60;;;1.40;;
8982;SDS011;20979;59.850;10.660;2023-04-06T08:50:32;2.50;;;1.57;;
8982;SDS011;20979;59.850;10.660;2023-04-06T08:53:01;1.40;;;1.30;;
8982;SDS011;20979;59.850;10.660;2023-04-06T08:55:29;1.43;;;1.33;;
8982;SDS011;20979;59.850;10.660;2023-04-06T08:57:56;1.20;;;1.10;;
8982;SDS011;20979;59.850;10.660;2023-04-06T09:00:25;2.00;;;1.37;;
8982;SDS011;20979;59.850;10.660;2023-04-06T09:02:53;1.37;;;1.27;;
8982;SDS011;20979;59.850;10.660;2023-04-06T09:05:21;1.00;;;1.00;;
8982;SDS011;20979;59.850;10.660;2023-04-06T09:07:48;1.30;;;1.20;;
8982;SDS011;20979;59.850;10.660;2023-04-06T09:10:17;1.40;;;1.30;;
8982;SDS011;20979;59.850;10.660;2023-04-06T09:12:45;1.50;;;1.40;;
8982;SDS011;20979;59.850;10.660;2023-04-06T09:15:19;1.40;;;1.30;;
8982;SDS011;20979;59.850;10.660;2023-04-06T09:17:47;2.37;;;1.50;;
8982;SDS011;20979;59.850;10.660;2023-04-06T09:20:21;0.97;;;0.97;;
8982;SDS011;20979;59.850;10.660;2023-04-06T09:22:50;1.47;;;1.33;;
8982;SDS011;20979;59.850;10.660;2023-04-06T09:25:20;1.40;;;1.30;;
8982;SDS011;20979;59.850;10.660;2023-04-06T09:27:48;1.40;;;1.30;;
8982;SDS011;20979;59.850;10.660;2023-04-06T09:30:16;1.50;;;1.30;;
8982;SDS011;20979;59.850;10.660;2023-04-06T09:32:44;1.60;;;1.50;;
8982;SDS011;20979;59.850;10.660;2023-04-06T09:35:12;3.10;;;1.70;;
8982;SDS011;20979;59.850;10.660;2023-04-06T09:37:39;2.07;;;1.70;;
8982;SDS011;20979;59.850;10.660;2023-04-06T09:40:07;1.43;;;1.30;;
8982;SDS011;20979;59.850;10.660;2023-04-06T09:42:36;1.40;;;1.30;;
8982;SDS011;20979;59.850;10.660;2023-04-06T09:45:04;1.33;;;1.20;;
8982;SDS011;20979;59.850;10.660;2023-04-06T09:47:31;0.93;;;0.90;;
8982;SDS011;20979;59.850;10.660;2023-04-06T09:49:59;0.93;;;0.90;;
8982;SDS011;20979;59.850;10.660;2023-04-06T09:52:27;1.10;;;1.10;;
8982;SDS011;20979;59.850;10.660;2023-04-06T09:54:58;1.27;;;1.20;;
8982;SDS011;20979;59.850;10.660;2023-04-06T09:57:28;1.20;;;1.10;;
8982;SDS011;20979;59.850;10.660;2023-04-06T09:59:58;1.00;;;1.00;;
8982;SDS011;20979;59.850;10.660;2023-04-06T10:02:32;1.63;;;1.10;;
8982;SDS011;20979;59.850;10.660;2023-04-06T10:05:02;0.90;;;0.90;;
8982;SDS011;20979;59.850;10.660;2023-04-06T10:07:32;1.33;;;1.27;;
8982;SDS011;20979;59.850;10.660;2023-04-06T10:10:00;1.10;;;1.00;;
8982;SDS011;20979;59.850;10.660;2023-04-06T10:12:27;1.20;;;1.03;;
8982;SDS011;20979;59.850;10.660;2023-04-06T10:14:55;1.37;;;1.37;;
8982;SDS011;20979;59.850;10.660;2023-04-06T10:17:24;1.50;;;1.40;;
8982;SDS011;20979;59.850;10.660;2023-04-06T10:19:52;2.33;;;1.50;;
8982;SDS011;20979;59.850;10.660;2023-04-06T10:22:22;1.60;;;1.50;;
8982;SDS011;20979;59.850;10.660;2023-04-06T10:24:51;1.70;;;1.60;;
8982;SDS011;20979;59.850;10.660;2023-04-06T10:27:27;2.00;;;1.70;;
8982;SDS011;20979;59.850;10.660;2023-04-06T10:29:54;1.60;;;1.50;;
8982;SDS011;20979;59.850;10.660;2023-04-06T10:32:33;1.30;;;1.30;;
8982;SDS011;20979;59.850;10.660;2023-04-06T10:35:10;1.67;;;1.57;;
8982;SDS011;20979;59.850;10.660;2023-04-06T10:37:49;1.67;;;1.57;;
8982;SDS011;20979;59.850;10.660;2023-04-06T10:40:20;1.60;;;1.47;;
8982;SDS011;20979;59.850;10.660;2023-04-06T10:42:49;1.53;;;1.43;;
8982;SDS011;20979;59.850;10.660;2023-04-06T10:45:20;1.50;;;1.40;;
8982;SDS011;20979;59.850;10.660;2023-04-06T10:47:49;1.80;;;1.70;;
8982;SDS011;20979;59.850;10.660;2023-04-06T10:50:16;1.70;;;1.60;;
8982;SDS011;20979;59.850;10.660;2023-04-06T10:52:44;1.60;;;1.40;;
8982;SDS011;20979;59.850;10.660;2023-04-06T10:55:12;2.53;;;1.60;;
8982;SDS011;20979;59.850;10.660;2023-04-06T10:57:40;1.63;;;1.50;;
8982;SDS011;20979;59.850;10.660;2023-04-06T11:00:08;2.60;;;1.57;;
8982;SDS011;20979;59.850;10.660;2023-04-06T11:02:36;1.50;;;1.23;;
8982;SDS011;20979;59.850;10.660;2023-04-06T11:05:10;1.37;;;1.27;;
8982;SDS011;20979;59.850;10.660;2023-04-06T11:07:39;1.20;;;1.20;;
8982;SDS011;20979;59.850;10.660;2023-04-06T11:10:07;1.40;;;1.30;;
8982;SDS011;20979;59.850;10.660;2023-04-06T11:12:34;1.13;;;1.13;;
8982;SDS011;20979;59.850;10.660;2023-04-06T11:15:02;1.10;;;1.10;;
8982;SDS011;20979;59.850;10.660;2023-04-06T11:17:31;1.20;;;1.20;;
8982;SDS011;20979;59.850;10.660;2023-04-06T11:19:58;1.27;;;1.27;;
8982;SDS011;20979;59.850;10.660;2023-04-06T11:22:27;1.40;;;1.30;;
8982;SDS011;20979;59.850;10.660;2023-04-06T11:25:04;2.27;;;1.30;;
8982;SDS011;20979;59.850;10.660;2023-04-06T11:27:32;1.20;;;1.20;;
8982;SDS011;20979;59.850;10.660;2023-04-06T11:29:59;1.10;;;1.00;;
8982;SDS011;20979;59.850;10.660;2023-04-06T11:32:27;1.33;;;1.00;;
8982;SDS011;20979;59.850;10.660;2023-04-06T11:34:54;1.47;;;1.27;;
8982;SDS011;20979;59.850;10.660;2023-04-06T11:37:22;1.30;;;1.20;;
8982;SDS011;20979;59.850;10.660;2023-04-06T11:39:54;1.30;;;1.20;;
8982;SDS011;20979;59.850;10.660;2023-04-06T11:42:22;1.10;;;1.10;;
8982;SDS011;20979;59.850;10.660;2023-04-06T11:44:50;1.93;;;1.40;;
8982;SDS011;20979;59.850;10.660;2023-04-06T11:47:18;1.47;;;1.40;;
8982;SDS011;20979;59.850;10.660;2023-04-06T11:49:47;2.00;;;1.13;;
8982;SDS011;20979;59.850;10.660;2023-04-06T11:52:15;1.30;;;1.20;;
8982;SDS011;20979;59.850;10.660;2023-04-06T11:54:43;1.50;;;1.40;;
8982;SDS011;20979;59.850;10.660;2023-04-06T11:57:12;1.17;;;1.10;;
8982;SDS011;20979;59.850;10.660;2023-04-06T11:59:39;1.60;;;1.20;;
8982;SDS011;20979;59.850;10.660;2023-04-06T12:02:07;1.50;;;1.40;;
8982;SDS011;20979;59.850;10.660;2023-04-06T12:04:34;1.53;;;1.43;;
8982;SDS011;20979;59.850;10.660;2023-04-06T12:07:02;1.47;;;1.10;;
8982;SDS011;20979;59.850;10.660;2023-04-06T12:09:29;1.20;;;1.20;;
8982;SDS011;20979;59.850;10.660;2023-04-06T12:11:57;1.23;;;1.03;;
8982;SDS011;20979;59.850;10.660;2023-04-06T12:14:25;1.20;;;1.10;;
8982;SDS011;20979;59.850;10.660;2023-04-06T12:16:53;1.13;;;1.13;;
8982;SDS011;20979;59.850;10.660;2023-04-06T12:19:20;1.10;;;1.10;;
8982;SDS011;20979;59.850;10.660;2023-04-06T12:21:50;2.30;;;1.20;;
8982;SDS011;20979;59.850;10.660;2023-04-06T12:24:18;1.00;;;1.00;;
8982;SDS011;20979;59.850;10.660;2023-04-06T12:26:45;1.50;;;1.40;;
8982;SDS011;20979;59.850;10.660;2023-04-06T12:29:13;1.10;;;1.10;;
8982;SDS011;20979;59.850;10.660;2023-04-06T12:31:41;2.00;;;1.23;;
8982;SDS011;20979;59.850;10.660;2023-04-06T12:34:10;1.47;;;1.37;;
8982;SDS011;20979;59.850;10.660;2023-04-06T12:36:37;1.60;;;1.50;;
8982;SDS011;20979;59.850;10.660;2023-04-06T12:39:05;1.50;;;1.20;;
8982;SDS011;20979;59.850;10.660;2023-04-06T12:41:32;1.70;;;1.60;;
8982;SDS011;20979;59.850;10.660;2023-04-06T12:44:00;1.43;;;1.33;;
8982;SDS011;20979;59.850;10.660;2023-04-06T12:46:27;1.17;;;1.00;;
8982;SDS011;20979;59.850;10.660;2023-04-06T12:48:57;1.30;;;1.20;;
8982;SDS011;20979;59.850;10.660;2023-04-06T12:51:24;0.93;;;0.93;;
8982;SDS011;20979;59.850;10.660;2023-04-06T12:53:52;1.03;;;1.03;;
8982;SDS011;20979;59.850;10.660;2023-04-06T12:56:19;1.10;;;1.10;;
8982;SDS011;20979;59.850;10.660;2023-04-06T12:58:47;1.60;;;1.10;;
8982;SDS011;20979;59.850;10.660;2023-04-06T13:01:14;1.23;;;1.13;;
8982;SDS011;20979;59.850;10.660;2023-04-06T13:03:42;2.70;;;1.30;;
8982;SDS011;20979;59.850;10.660;2023-04-06T13:06:11;1.20;;;1.10;;
8982;SDS011;20979;59.850;10.660;2023-04-06T13:08:40;1.20;;;1.17;;
8982;SDS011;20979;59.850;10.660;2023-04-06T13:11:08;1.90;;;1.10;;
8982;SDS011;20979;59.850;10.660;2023-04-06T13:13:35;1.03;;;1.03;;
8982;SDS011;20979;59.850;10.660;2023-04-06T13:16:03;1.33;;;1.20;;
8982;SDS011;20979;59.850;10.660;2023-04-06T13:18:31;1.60;;;1.50;;
8982;SDS011;20979;59.850;10.660;2023-04-06T13:20:59;1.20;;;1.20;;
8982;SDS011;20979;59.850;10.660;2023-04-06T13:23:28;1.40;;;1.30;;
8982;SDS011;20979;59.850;10.660;2023-04-06T13:25:59;1.33;;;1.20;;
8982;SDS011;20979;59.850;10.660;2023-04-06T13:28:27;1.10;;;1.10;;
8982;SDS011;20979;59.850;10.660;2023-04-06T13:30:54;1.67;;;1.30;;
8982;SDS011;20979;59.850;10.660;2023-04-06T13:33:22;1.43;;;1.33;;
8982;SDS011;20979;59.850;10.660;2023-04-06T13:35:49;1.70;;;1.30;;
8982;SDS011;20979;59.850;10.660;2023-04-06T13:38:16;1.50;;;1.40;;
8982;SDS011;20979;59.850;10.660;2023-04-06T13:40:46;1.00;;;1.00;;
8982;SDS011;20979;59.850;10.660;2023-04-06T13:43:13;1.60;;;1.50;;
8982;SDS011;20979;59.850;10.660;2023-04-06T13:45:40;1.43;;;1.27;;
8982;SDS011;20979;59.850;10.660;2023-04-06T13:48:08;1.47;;;1.30;;
8982;SDS011;20979;59.850;10.660;2023-04-06T13:50:35;1.93;;;1.73;;
8982;SDS011;20979;59.850;10.660;2023-04-06T13:53:03;1.60;;;1.50;;
8982;SDS011;20979;59.850;10.660;2023-04-06T13:55:30;1.47;;;1.20;;
8982;SDS011;20979;59.850;10.660;2023-04-06T13:57:59;1.30;;;1.20;;
8982;SDS011;20979;59.850;10.660;2023-04-06T14:00:26;1.40;;;1.30;;
8982;SDS011;20979;59.850;10.660;2023-04-06T14:02:54;1.50;;;1.40;;
8982;SDS011;20979;59.850;10.660;2023-04-06T14:05:21;1.10;;;1.10;;
8982;SDS011;20979;59.850;10.660;2023-04-06T14:07:49;1.73;;;1.30;;
8982;SDS011;20979;59.850;10.660;2023-04-06T14:10:16;1.50;;;1.30;;
8982;SDS011;20979;59.850;10.660;2023-04-06T14:12:46;1.73;;;1.43;;
8982;SDS011;20979;59.850;10.660;2023-04-06T14:15:15;2.13;;;1.60;;
8982;SDS011;20979;59.850;10.660;2023-04-06T14:17:42;1.80;;;1.70;;
8982;SDS011;20979;59.850;10.660;2023-04-06T14:20:10;1.47;;;1.37;;
8982;SDS011;20979;59.850;10.660;2023-04-06T14:22:40;2.23;;;1.50;;
8982;SDS011;20979;59.850;10.660;2023-04-06T14:25:08;1.60;;;1.50;;
8982;SDS011;20979;59.850;10.660;2023-04-06T14:27:36;1.23;;;1.23;;
8982;SDS011;20979;59.850;10.660;2023-04-06T14:30:03;1.20;;;1.10;;
8982;SDS011;20979;59.850;10.660;2023-04-06T14:32:32;1.20;;;1.20;;
8982;SDS011;20979;59.850;10.660;2023-04-06T14:35:00;1.43;;;1.33;;
8982;SDS011;20979;59.850;10.660;2023-04-06T14:37:28;2.00;;;1.63;;
8982;SDS011;20979;59.850;10.660;2023-04-06T14:39:55;1.60;;;1.50;;
8982;SDS011;20979;59.850;10.660;2023-04-06T14:42:22;1.40;;;1.30;;
8982;SDS011;20979;59.850;10.660;2023-04-06T14:44:50;1.50;;;1.40;;
8982;SDS011;20979;59.850;10.660;2023-04-06T14:47:18;1.57;;;1.47;;
8982;SDS011;20979;59.850;10.660;2023-04-06T14:49:48;1.30;;;1.20;;
8982;SDS011;20979;59.850;10.660;2023-04-06T14:52:16;1.50;;;1.40;;